This is the latest recevied weather packets stored in our database for station/object WC4PEM-11. If no packets are shown the sender has not sent any weather packets the latest 10 day(s).
| Time | Temp. | Humidity | Pressure | Rain* | Wind** | Luminosity | Snow |
|---|---|---|---|---|---|---|---|
| 1777900387 | 22.22° C | 74% | 1016.8 hPa | 0 mm | - | - | - |
| 1777900087 | 21.67° C | 76% | 1016.8 hPa | 0 mm | - | - | - |
| 1777899787 | 21.67° C | 76% | 1016.8 hPa | 0 mm | - | - | - |
| 1777899487 | 21.67° C | 77% | 1016.8 hPa | 0 mm | - | - | - |
| 1777899187 | 21.11° C | 78% | 1016.8 hPa | 0 mm | - | - | - |
| 1777898887 | 21.11° C | 79% | 1016.7 hPa | 0 mm | - | - | - |
| 1777898587 | 21.11° C | 79% | 1016.7 hPa | 0 mm | - | - | - |
| 1777898287 | 20.56° C | 79% | 1016.7 hPa | 0 mm | - | - | - |
| 1777897988 | 20.56° C | 79% | 1016.5 hPa | 0 mm | - | - | - |
| 1777897687 | 20.56° C | 80% | 1016.6 hPa | 0 mm | - | - | - |
| 1777897387 | 20.56° C | 81% | 1016.5 hPa | 0 mm | - | - | - |
| 1777897087 | 20° C | 82% | 1016.6 hPa | 0 mm | - | - | - |
| 1777896787 | 20° C | 82% | 1016.5 hPa | 0 mm | - | - | - |
| 1777896487 | 19.44° C | 82% | 1016.5 hPa | 0 mm | - | - | - |
| 1777896187 | 19.44° C | 83% | 1016.5 hPa | 0 mm | - | - | - |
| 1777895902 | 18.33° C | 87% | 1016.4 hPa | 0 mm | - | - | - |
| 1777895887 | 18.89° C | 85% | 1016.5 hPa | 0 mm | - | - | - |
| 1777895587 | 18.89° C | 86% | 1016.4 hPa | 0 mm | - | - | - |
| 1777895287 | 18.33° C | 87% | 1016.4 hPa | 0 mm | - | - | - |
| 1777895186 | 17.78° C | 89% | 1016.4 hPa | 0 mm | - | - | - |
| 1777894987 | 18.33° C | 88% | 1016.5 hPa | 0 mm | - | - | - |
| 1777894687 | 17.78° C | 89% | 1016.4 hPa | 0 mm | - | - | - |
| 1777894387 | 17.78° C | 89% | 1016.4 hPa | 0 mm | - | - | - |
| 1777894087 | 17.78° C | 89% | 1016.3 hPa | 0 mm | - | - | - |
| 1777893787 | 17.78° C | 89% | 1016.3 hPa | 0 mm | - | - | - |
* Rain latest hour (hover to see other rain measurements)
** Current wind speed in m/s (hover to see current wind gust speed)